sensor_id;sensor_type;location;lat;lon;timestamp;pressure;altitude;pressure_sealevel;temperature;humidity
9822;BME280;4950;46.042;14.472;2023-04-21T00:01:25;97893.63;;;10.99;82.70
9822;BME280;4950;46.042;14.472;2023-04-21T00:03:54;97893.38;;;10.94;82.82
9822;BME280;4950;46.042;14.472;2023-04-21T00:06:21;97890.41;;;10.97;83.16
9822;BME280;4950;46.042;14.472;2023-04-21T00:08:47;97884.06;;;11.00;82.83
9822;BME280;4950;46.042;14.472;2023-04-21T00:11:14;97878.72;;;11.01;82.45
9822;BME280;4950;46.042;14.472;2023-04-21T00:13:41;97881.31;;;11.01;82.80
9822;BME280;4950;46.042;14.472;2023-04-21T00:16:08;97878.88;;;11.00;82.92
9822;BME280;4950;46.042;14.472;2023-04-21T00:18:36;97873.69;;;11.00;82.89
9822;BME280;4950;46.042;14.472;2023-04-21T00:21:04;97870.91;;;11.01;82.34
9822;BME280;4950;46.042;14.472;2023-04-21T00:23:31;97869.00;;;10.95;83.14
9822;BME280;4950;46.042;14.472;2023-04-21T00:25:57;97862.66;;;10.98;82.88
9822;BME280;4950;46.042;14.472;2023-04-21T00:28:26;97860.69;;;11.00;82.91
9822;BME280;4950;46.042;14.472;2023-04-21T00:30:53;97860.25;;;10.96;83.06
9822;BME280;4950;46.042;14.472;2023-04-21T00:33:20;97857.47;;;10.98;83.30
9822;BME280;4950;46.042;14.472;2023-04-21T00:35:48;97857.94;;;11.01;83.15
9822;BME280;4950;46.042;14.472;2023-04-21T00:38:15;97853.53;;;11.02;82.91
9822;BME280;4950;46.042;14.472;2023-04-21T00:40:41;97861.16;;;11.03;82.96
9822;BME280;4950;46.042;14.472;2023-04-21T00:43:08;97864.72;;;11.02;82.54
9822;BME280;4950;46.042;14.472;2023-04-21T00:45:35;97858.91;;;11.00;82.99
9822;BME280;4950;46.042;14.472;2023-04-21T00:48:02;97861.50;;;11.00;82.98
9822;BME280;4950;46.042;14.472;2023-04-21T00:50:29;97860.06;;;10.98;82.52
9822;BME280;4950;46.042;14.472;2023-04-21T00:52:57;97856.66;;;10.97;82.42
9822;BME280;4950;46.042;14.472;2023-04-21T00:55:24;97860.25;;;10.96;82.21
9822;BME280;4950;46.042;14.472;2023-04-21T00:57:51;97864.44;;;10.97;82.08
9822;BME280;4950;46.042;14.472;2023-04-21T01:00:19;97861.31;;;11.02;81.91
9822;BME280;4950;46.042;14.472;2023-04-21T01:02:46;97847.88;;;10.98;81.91
9822;BME280;4950;46.042;14.472;2023-04-21T01:05:12;97854.88;;;10.98;82.32
9822;BME280;4950;46.042;14.472;2023-04-21T01:07:40;97853.06;;;10.98;81.86
9822;BME280;4950;46.042;14.472;2023-04-21T01:10:09;97852.91;;;11.00;81.95
9822;BME280;4950;46.042;14.472;2023-04-21T01:12:41;97844.81;;;10.95;82.03
9822;BME280;4950;46.042;14.472;2023-04-21T01:15:09;97853.78;;;10.92;81.91
9822;BME280;4950;46.042;14.472;2023-04-21T01:17:36;97856.91;;;10.87;82.08
9822;BME280;4950;46.042;14.472;2023-04-21T01:20:07;97853.97;;;10.91;81.60
9822;BME280;4950;46.042;14.472;2023-04-21T01:22:37;97851.53;;;10.89;81.97
9822;BME280;4950;46.042;14.472;2023-04-21T01:25:04;97854.50;;;10.86;81.85
9822;BME280;4950;46.042;14.472;2023-04-21T01:27:31;97849.31;;;10.86;81.95
9822;BME280;4950;46.042;14.472;2023-04-21T01:29:58;97853.34;;;10.89;82.27
9822;BME280;4950;46.042;14.472;2023-04-21T01:32:26;97850.56;;;10.90;82.35
9822;BME280;4950;46.042;14.472;2023-04-21T01:34:55;97847.13;;;10.90;82.00
9822;BME280;4950;46.042;14.472;2023-04-21T01:37:25;97849.09;;;10.87;82.68
9822;BME280;4950;46.042;14.472;2023-04-21T01:39:55;97846.72;;;10.86;82.68
9822;BME280;4950;46.042;14.472;2023-04-21T01:42:24;97843.28;;;10.85;82.71
9822;BME280;4950;46.042;14.472;2023-04-21T01:44:52;97842.03;;;10.81;83.00
9822;BME280;4950;46.042;14.472;2023-04-21T01:47:19;97840.88;;;10.84;83.13
9822;BME280;4950;46.042;14.472;2023-04-21T01:49:46;97836.63;;;10.68;83.86
9822;BME280;4950;46.042;14.472;2023-04-21T01:52:13;97844.72;;;10.50;85.08
9822;BME280;4950;46.042;14.472;2023-04-21T01:54:40;97839.44;;;10.43;85.71
9822;BME280;4950;46.042;14.472;2023-04-21T01:57:08;97841.03;;;10.44;85.74
9822;BME280;4950;46.042;14.472;2023-04-21T01:59:36;97846.69;;;10.48;85.36
9822;BME280;4950;46.042;14.472;2023-04-21T02:02:03;97844.25;;;10.46;85.33
9822;BME280;4950;46.042;14.472;2023-04-21T02:04:30;97841.78;;;10.53;85.10
9822;BME280;4950;46.042;14.472;2023-04-21T02:06:56;97830.06;;;10.57;85.42
9822;BME280;4950;46.042;14.472;2023-04-21T02:09:23;97840.09;;;10.60;84.61
9822;BME280;4950;46.042;14.472;2023-04-21T02:11:50;97842.88;;;10.59;84.96
9822;BME280;4950;46.042;14.472;2023-04-21T02:14:18;97831.69;;;10.58;85.22
9822;BME280;4950;46.042;14.472;2023-04-21T02:16:46;97832.31;;;10.60;85.26
9822;BME280;4950;46.042;14.472;2023-04-21T02:19:12;97830.38;;;10.62;85.18
9822;BME280;4950;46.042;14.472;2023-04-21T02:21:39;97824.50;;;10.60;85.38
9822;BME280;4950;46.042;14.472;2023-04-21T02:24:06;97822.13;;;10.59;84.75
9822;BME280;4950;46.042;14.472;2023-04-21T02:26:32;97827.94;;;10.61;85.01
9822;BME280;4950;46.042;14.472;2023-04-21T02:28:59;97830.72;;;10.59;85.54
9822;BME280;4950;46.042;14.472;2023-04-21T02:31:28;97829.72;;;10.60;85.28
9822;BME280;4950;46.042;14.472;2023-04-21T02:33:55;97826.59;;;10.65;85.46
9822;BME280;4950;46.042;14.472;2023-04-21T02:36:22;97831.97;;;10.63;85.43
9822;BME280;4950;46.042;14.472;2023-04-21T02:38:48;97823.38;;;10.63;85.43
9822;BME280;4950;46.042;14.472;2023-04-21T02:41:15;97817.38;;;10.62;85.14
9822;BME280;4950;46.042;14.472;2023-04-21T02:43:42;97819.78;;;10.64;85.48
9822;BME280;4950;46.042;14.472;2023-04-21T02:46:09;97822.59;;;10.62;85.73
9822;BME280;4950;46.042;14.472;2023-04-21T02:48:37;97819.00;;;10.63;86.13
9822;BME280;4950;46.042;14.472;2023-04-21T02:51:03;97816.72;;;10.60;86.03
9822;BME280;4950;46.042;14.472;2023-04-21T02:53:30;97814.13;;;10.60;86.36
9822;BME280;4950;46.042;14.472;2023-04-21T02:55:57;97815.75;;;10.61;85.89
9822;BME280;4950;46.042;14.472;2023-04-21T02:58:26;97808.13;;;10.60;86.26
9822;BME280;4950;46.042;14.472;2023-04-21T03:00:53;97813.34;;;10.60;86.05
9822;BME280;4950;46.042;14.472;2023-04-21T03:03:20;97808.38;;;10.50;85.76
9822;BME280;4950;46.042;14.472;2023-04-21T03:05:48;97818.13;;;10.48;86.62
9822;BME280;4950;46.042;14.472;2023-04-21T03:08:15;97825.13;;;10.47;86.38
9822;BME280;4950;46.042;14.472;2023-04-21T03:10:41;97821.53;;;10.48;86.21
9822;BME280;4950;46.042;14.472;2023-04-21T03:13:08;97824.31;;;10.47;86.00
9822;BME280;4950;46.042;14.472;2023-04-21T03:15:35;97823.16;;;10.50;86.30
9822;BME280;4950;46.042;14.472;2023-04-21T03:18:02;97825.94;;;10.48;86.17
9822;BME280;4950;46.042;14.472;2023-04-21T03:20:28;97823.63;;;10.53;86.09
9822;BME280;4950;46.042;14.472;2023-04-21T03:22:56;97822.81;;;10.53;85.99
9822;BME280;4950;46.042;14.472;2023-04-21T03:25:23;97827.38;;;10.51;86.65
9822;BME280;4950;46.042;14.472;2023-04-21T03:27:52;97819.06;;;10.55;86.13
9822;BME280;4950;46.042;14.472;2023-04-21T03:30:18;97815.84;;;10.53;86.22
9822;BME280;4950;46.042;14.472;2023-04-21T03:32:45;97817.16;;;10.49;86.57
9822;BME280;4950;46.042;14.472;2023-04-21T03:35:12;97818.59;;;10.52;85.84
9822;BME280;4950;46.042;14.472;2023-04-21T03:37:39;97812.94;;;10.48;86.11
9822;BME280;4950;46.042;14.472;2023-04-21T03:40:07;97818.94;;;10.48;86.10
9822;BME280;4950;46.042;14.472;2023-04-21T03:42:34;97819.59;;;10.51;86.08
9822;BME280;4950;46.042;14.472;2023-04-21T03:45:07;97824.84;;;10.42;86.12
9822;BME280;4950;46.042;14.472;2023-04-21T03:47:35;97824.66;;;10.44;85.91
9822;BME280;4950;46.042;14.472;2023-04-21T03:50:02;97823.22;;;10.41;85.93
9822;BME280;4950;46.042;14.472;2023-04-21T03:52:29;97832.44;;;10.44;86.16
9822;BME280;4950;46.042;14.472;2023-04-21T03:54:56;97827.88;;;10.46;86.29
9822;BME280;4950;46.042;14.472;2023-04-21T03:57:24;97827.88;;;10.46;86.10
9822;BME280;4950;46.042;14.472;2023-04-21T03:59:50;97831.28;;;10.46;86.26
9822;BME280;4950;46.042;14.472;2023-04-21T04:02:17;97839.44;;;10.43;86.25
9822;BME280;4950;46.042;14.472;2023-04-21T04:04:44;97838.97;;;10.40;85.73
9822;BME280;4950;46.042;14.472;2023-04-21T04:07:11;97840.59;;;10.41;86.26
9822;BME280;4950;46.042;14.472;2023-04-21T04:09:38;97838.50;;;10.36;85.73
9822;BME280;4950;46.042;14.472;2023-04-21T04:12:05;97841.53;;;10.17;86.00
9822;BME280;4950;46.042;14.472;2023-04-21T04:14:33;97840.38;;;10.19;86.33
9822;BME280;4950;46.042;14.472;2023-04-21T04:16:59;97839.41;;;10.20;86.27
9822;BME280;4950;46.042;14.472;2023-04-21T04:19:29;97838.59;;;10.20;85.98
9822;BME280;4950;46.042;14.472;2023-04-21T04:21:57;97840.66;;;10.24;86.12
9822;BME280;4950;46.042;14.472;2023-04-21T04:24:24;97842.09;;;10.27;85.73
9822;BME280;4950;46.042;14.472;2023-04-21T04:26:52;97844.25;;;10.23;85.99
9822;BME280;4950;46.042;14.472;2023-04-21T04:29:19;97846.84;;;10.23;86.37
9822;BME280;4950;46.042;14.472;2023-04-21T04:31:48;97853.47;;;10.26;86.24
9822;BME280;4950;46.042;14.472;2023-04-21T04:34:15;97853.09;;;10.29;86.71
9822;BME280;4950;46.042;14.472;2023-04-21T04:36:42;97853.09;;;10.29;86.27
9822;BME280;4950;46.042;14.472;2023-04-21T04:39:08;97850.72;;;10.27;86.31
9822;BME280;4950;46.042;14.472;2023-04-21T04:41:36;97857.66;;;10.27;86.37
9822;BME280;4950;46.042;14.472;2023-04-21T04:44:03;97858.31;;;10.29;86.83
9822;BME280;4950;46.042;14.472;2023-04-21T04:46:31;97861.38;;;10.33;87.06
9822;BME280;4950;46.042;14.472;2023-04-21T04:48:59;97860.09;;;10.28;86.75
9822;BME280;4950;46.042;14.472;2023-04-21T04:51:26;97858.81;;;10.33;86.68
9822;BME280;4950;46.042;14.472;2023-04-21T04:53:53;97866.28;;;10.27;86.26
9822;BME280;4950;46.042;14.472;2023-04-21T04:56:19;97867.59;;;10.23;87.00
9822;BME280;4950;46.042;14.472;2023-04-21T04:58:46;97872.31;;;10.20;87.07
9822;BME280;4950;46.042;14.472;2023-04-21T05:01:13;97870.00;;;10.25;87.21
9822;BME280;4950;46.042;14.472;2023-04-21T05:03:41;97873.88;;;10.29;86.86
9822;BME280;4950;46.042;14.472;2023-04-21T05:06:09;97878.59;;;10.34;86.79
9822;BME280;4950;46.042;14.472;2023-04-21T05:08:36;97878.84;;;10.39;87.17
9822;BME280;4950;46.042;14.472;2023-04-21T05:11:04;97875.41;;;10.46;87.95
9822;BME280;4950;46.042;14.472;2023-04-21T05:13:31;97883.66;;;10.50;88.89
9822;BME280;4950;46.042;14.472;2023-04-21T05:15:58;97882.53;;;10.53;87.77
9822;BME280;4950;46.042;14.472;2023-04-21T05:18:26;97888.03;;;10.50;87.69
9822;BME280;4950;46.042;14.472;2023-04-21T05:20:53;97887.75;;;10.44;87.56
9822;BME280;4950;46.042;14.472;2023-04-21T05:23:22;97887.13;;;10.42;87.01
9822;BME280;4950;46.042;14.472;2023-04-21T05:25:48;97889.13;;;10.32;86.55
9822;BME280;4950;46.042;14.472;2023-04-21T05:28:15;97892.19;;;10.36;86.56
9822;BME280;4950;46.042;14.472;2023-04-21T05:30:42;97889.25;;;10.39;86.68
9822;BME280;4950;46.042;14.472;2023-04-21T05:33:08;97894.56;;;10.45;86.49
9822;BME280;4950;46.042;14.472;2023-04-21T05:35:35;97892.44;;;10.49;86.34
9822;BME280;4950;46.042;14.472;2023-04-21T05:38:02;97893.06;;;10.51;86.84
9822;BME280;4950;46.042;14.472;2023-04-21T05:40:30;97890.47;;;10.51;86.75
9822;BME280;4950;46.042;14.472;2023-04-21T05:42:57;97897.72;;;10.56;86.87
9822;BME280;4950;46.042;14.472;2023-04-21T05:45:23;97893.25;;;10.50;87.37
9822;BME280;4950;46.042;14.472;2023-04-21T05:47:50;97900.06;;;10.51;87.78
9822;BME280;4950;46.042;14.472;2023-04-21T05:50:17;97903.28;;;10.53;87.33
9822;BME280;4950;46.042;14.472;2023-04-21T05:52:44;97899.63;;;10.62;86.91
9822;BME280;4950;46.042;14.472;2023-04-21T05:55:10;97892.72;;;10.54;86.77
9822;BME280;4950;46.042;14.472;2023-04-21T05:57:39;97899.00;;;10.60;86.59
9822;BME280;4950;46.042;14.472;2023-04-21T06:00:08;97895.69;;;10.66;86.22
9822;BME280;4950;46.042;14.472;2023-04-21T06:02:35;97907.34;;;10.70;86.21
9822;BME280;4950;46.042;14.472;2023-04-21T06:05:02;97909.44;;;10.75;86.17
9822;BME280;4950;46.042;14.472;2023-04-21T06:07:28;97902.97;;;10.71;86.55
9822;BME280;4950;46.042;14.472;2023-04-21T06:09:55;97901.72;;;10.66;86.91
9822;BME280;4950;46.042;14.472;2023-04-21T06:12:22;97899.41;;;10.72;87.40
9822;BME280;4950;46.042;14.472;2023-04-21T06:14:50;97903.88;;;10.78;86.30
9822;BME280;4950;46.042;14.472;2023-04-21T06:17:21;97899.53;;;10.78;86.49
9822;BME280;4950;46.042;14.472;2023-04-21T06:19:48;97898.69;;;10.78;86.29
9822;BME280;4950;46.042;14.472;2023-04-21T06:22:17;97903.72;;;10.79;86.52
9822;BME280;4950;46.042;14.472;2023-04-21T06:24:44;97904.81;;;10.85;85.71
9822;BME280;4950;46.042;14.472;2023-04-21T06:27:11;97904.47;;;10.88;86.10
9822;BME280;4950;46.042;14.472;2023-04-21T06:29:38;97907.88;;;10.89;85.96
9822;BME280;4950;46.042;14.472;2023-04-21T06:32:06;97905.09;;;10.90;86.04
9822;BME280;4950;46.042;14.472;2023-04-21T06:34:33;97904.41;;;10.96;85.79
9822;BME280;4950;46.042;14.472;2023-04-21T06:37:00;97902.13;;;10.93;85.93
9822;BME280;4950;46.042;14.472;2023-04-21T06:39:27;97904.56;;;10.95;85.77
9822;BME280;4950;46.042;14.472;2023-04-21T06:41:54;97901.00;;;10.96;85.41
9822;BME280;4950;46.042;14.472;2023-04-21T06:44:22;97905.03;;;10.98;85.53
9822;BME280;4950;46.042;14.472;2023-04-21T06:46:49;97908.25;;;11.00;85.34
9822;BME280;4950;46.042;14.472;2023-04-21T06:49:17;97900.56;;;11.07;86.47
9822;BME280;4950;46.042;14.472;2023-04-21T06:51:44;97912.75;;;11.06;86.09
9822;BME280;4950;46.042;14.472;2023-04-21T06:54:10;97909.19;;;11.07;85.25
9822;BME280;4950;46.042;14.472;2023-04-21T06:56:37;97899.50;;;11.01;85.50
9822;BME280;4950;46.042;14.472;2023-04-21T06:59:04;97905.47;;;11.02;85.76
9822;BME280;4950;46.042;14.472;2023-04-21T07:01:31;97896.91;;;11.01;86.14
9822;BME280;4950;46.042;14.472;2023-04-21T07:03:57;97907.22;;;11.10;86.08
9822;BME280;4950;46.042;14.472;2023-04-21T07:06:26;97907.47;;;11.15;85.38
9822;BME280;4950;46.042;14.472;2023-04-21T07:08:52;97905.22;;;11.12;85.66
9822;BME280;4950;46.042;14.472;2023-04-21T07:11:19;97908.97;;;11.09;85.68
9822;BME280;4950;46.042;14.472;2023-04-21T07:13:46;97917.41;;;11.11;85.63
9822;BME280;4950;46.042;14.472;2023-04-21T07:16:12;97905.50;;;11.17;85.01
9822;BME280;4950;46.042;14.472;2023-04-21T07:18:39;97911.31;;;11.04;85.57
9822;BME280;4950;46.042;14.472;2023-04-21T07:21:06;97910.06;;;11.00;86.04
9822;BME280;4950;46.042;14.472;2023-04-21T07:23:34;97917.72;;;10.93;86.76
9822;BME280;4950;46.042;14.472;2023-04-21T07:26:01;97909.50;;;11.04;86.38
9822;BME280;4950;46.042;14.472;2023-04-21T07:28:27;97918.88;;;10.91;85.99
9822;BME280;4950;46.042;14.472;2023-04-21T07:30:54;97918.44;;;10.87;86.61
9822;BME280;4950;46.042;14.472;2023-04-21T07:33:21;97917.00;;;10.84;86.77
9822;BME280;4950;46.042;14.472;2023-04-21T07:35:47;97911.91;;;10.91;86.54
9822;BME280;4950;46.042;14.472;2023-04-21T07:38:14;97912.75;;;11.06;86.03
9822;BME280;4950;46.042;14.472;2023-04-21T07:40:42;97920.53;;;11.06;85.37
9822;BME280;4950;46.042;14.472;2023-04-21T07:43:09;97919.56;;;11.07;85.59
9822;BME280;4950;46.042;14.472;2023-04-21T07:45:36;97921.97;;;11.09;85.27
9822;BME280;4950;46.042;14.472;2023-04-21T07:48:03;97915.16;;;11.08;84.66
9822;BME280;4950;46.042;14.472;2023-04-21T07:50:31;97916.75;;;11.09;84.87
9822;BME280;4950;46.042;14.472;2023-04-21T07:52:57;97920.00;;;11.11;84.88
9822;BME280;4950;46.042;14.472;2023-04-21T07:55:26;97918.94;;;11.20;84.94
9822;BME280;4950;46.042;14.472;2023-04-21T07:57:54;97917.72;;;11.31;84.56
9822;BME280;4950;46.042;14.472;2023-04-21T08:00:21;97915.03;;;11.39;84.50
9822;BME280;4950;46.042;14.472;2023-04-21T08:02:47;97910.81;;;11.53;83.42
9822;BME280;4950;46.042;14.472;2023-04-21T08:05:14;97916.31;;;11.58;82.98
9822;BME280;4950;46.042;14.472;2023-04-21T08:07:41;97912.06;;;11.57;83.08
9822;BME280;4950;46.042;14.472;2023-04-21T08:10:08;97912.97;;;11.64;82.70
9822;BME280;4950;46.042;14.472;2023-04-21T08:12:35;97909.09;;;11.75;82.55
9822;BME280;4950;46.042;14.472;2023-04-21T08:15:04;97907.22;;;11.84;82.52
9822;BME280;4950;46.042;14.472;2023-04-21T08:17:32;97910.81;;;11.98;81.93
9822;BME280;4950;46.042;14.472;2023-04-21T08:19:59;97915.56;;;12.09;81.62
9822;BME280;4950;46.042;14.472;2023-04-21T08:22:26;97913.47;;;12.19;80.64
9822;BME280;4950;46.042;14.472;2023-04-21T08:24:53;97916.97;;;12.27;80.39
9822;BME280;4950;46.042;14.472;2023-04-21T08:27:20;97911.47;;;12.36;80.46
9822;BME280;4950;46.042;14.472;2023-04-21T08:29:47;97911.56;;;12.50;79.94
9822;BME280;4950;46.042;14.472;2023-04-21T08:32:16;97909.03;;;12.56;78.46
9822;BME280;4950;46.042;14.472;2023-04-21T08:34:47;97913.50;;;12.62;78.53
9822;BME280;4950;46.042;14.472;2023-04-21T08:37:16;97905.38;;;12.72;77.69
9822;BME280;4950;46.042;14.472;2023-04-21T08:39:43;97901.84;;;12.80;77.37
9822;BME280;4950;46.042;14.472;2023-04-21T08:42:10;97902.41;;;12.75;76.68
9822;BME280;4950;46.042;14.472;2023-04-21T08:44:38;97899.59;;;12.77;77.15
9822;BME280;4950;46.042;14.472;2023-04-21T08:47:07;97901.06;;;12.86;76.56
9822;BME280;4950;46.042;14.472;2023-04-21T08:49:36;97905.16;;;12.95;75.37
9822;BME280;4950;46.042;14.472;2023-04-21T08:52:03;97895.78;;;13.01;74.03
9822;BME280;4950;46.042;14.472;2023-04-21T08:54:31;97891.91;;;13.18;72.91
9822;BME280;4950;46.042;14.472;2023-04-21T08:56:57;97885.94;;;13.24;73.05
9822;BME280;4950;46.042;14.472;2023-04-21T08:59:24;97897.34;;;13.23;72.96
9822;BME280;4950;46.042;14.472;2023-04-21T09:02:08;97891.81;;;13.33;73.00
9822;BME280;4950;46.042;14.472;2023-04-21T09:04:38;97890.69;;;13.42;72.47
9822;BME280;4950;46.042;14.472;2023-04-21T09:07:05;97891.75;;;13.55;72.17
9822;BME280;4950;46.042;14.472;2023-04-21T09:09:36;97887.38;;;13.69;71.87
9822;BME280;4950;46.042;14.472;2023-04-21T09:12:17;97889.88;;;13.83;71.62
9822;BME280;4950;46.042;14.472;2023-04-21T09:14:44;97883.50;;;13.93;71.67
9822;BME280;4950;46.042;14.472;2023-04-21T09:17:10;97876.69;;;13.98;69.60
9822;BME280;4950;46.042;14.472;2023-04-21T09:19:38;97873.50;;;14.10;69.51
9822;BME280;4950;46.042;14.472;2023-04-21T09:22:05;97883.38;;;14.21;68.94
9822;BME280;4950;46.042;14.472;2023-04-21T09:24:32;97878.38;;;14.33;68.26
9822;BME280;4950;46.042;14.472;2023-04-21T09:27:01;97877.19;;;14.42;68.22
9822;BME280;4950;46.042;14.472;2023-04-21T09:29:29;97874.44;;;14.57;65.69
9822;BME280;4950;46.042;14.472;2023-04-21T09:31:55;97875.25;;;14.71;64.82
9822;BME280;4950;46.042;14.472;2023-04-21T09:34:23;97874.22;;;14.72;65.09
9822;BME280;4950;46.042;14.472;2023-04-21T09:37:00;97878.06;;;14.69;65.03
9822;BME280;4950;46.042;14.472;2023-04-21T09:39:28;97872.63;;;14.71;64.95
9822;BME280;4950;46.042;14.472;2023-04-21T09:41:55;97880.25;;;14.72;64.30
9822;BME280;4950;46.042;14.472;2023-04-21T09:44:23;97875.25;;;14.77;64.61
9822;BME280;4950;46.042;14.472;2023-04-21T09:46:50;97875.84;;;14.79;64.15
9822;BME280;4950;46.042;14.472;2023-04-21T09:49:21;97873.25;;;14.86;64.80
9822;BME280;4950;46.042;14.472;2023-04-21T09:51:48;97871.81;;;14.97;64.64
9822;BME280;4950;46.042;14.472;2023-04-21T09:54:18;97874.41;;;15.04;64.54
9822;BME280;4950;46.042;14.472;2023-04-21T09:56:48;97867.78;;;15.08;64.34
9822;BME280;4950;46.042;14.472;2023-04-21T09:59:20;97872.00;;;15.15;64.07
9822;BME280;4950;46.042;14.472;2023-04-21T10:01:52;97854.06;;;15.19;63.99
9822;BME280;4950;46.042;14.472;2023-04-21T10:04:20;97863.53;;;15.27;64.60
9822;BME280;4950;46.042;14.472;2023-04-21T10:06:48;97857.09;;;15.29;62.02
9822;BME280;4950;46.042;14.472;2023-04-21T10:09:20;97855.44;;;15.35;62.77
9822;BME280;4950;46.042;14.472;2023-04-21T10:11:48;97855.66;;;15.47;62.99
9822;BME280;4950;46.042;14.472;2023-04-21T10:14:15;97842.53;;;15.53;62.28
9822;BME280;4950;46.042;14.472;2023-04-21T10:16:42;97842.50;;;15.60;61.70
9822;BME280;4950;46.042;14.472;2023-04-21T10:19:25;97846.69;;;15.68;60.98
9822;BME280;4950;46.042;14.472;2023-04-21T10:21:54;97847.69;;;15.80;59.63
9822;BME280;4950;46.042;14.472;2023-04-21T10:24:23;97844.97;;;16.00;59.50
9822;BME280;4950;46.042;14.472;2023-04-21T10:26:50;97841.09;;;16.09;59.46
9822;BME280;4950;46.042;14.472;2023-04-21T10:29:27;97838.69;;;16.08;59.68
9822;BME280;4950;46.042;14.472;2023-04-21T10:31:54;97829.19;;;16.13;60.43
9822;BME280;4950;46.042;14.472;2023-04-21T10:34:28;97830.59;;;16.16;58.74
9822;BME280;4950;46.042;14.472;2023-04-21T10:37:16;97825.84;;;16.31;58.70
9822;BME280;4950;46.042;14.472;2023-04-21T10:39:51;97821.13;;;16.40;58.77
9822;BME280;4950;46.042;14.472;2023-04-21T10:42:32;97820.28;;;16.46;58.87
9822;BME280;4950;46.042;14.472;2023-04-21T10:45:01;97819.00;;;16.55;59.41
9822;BME280;4950;46.042;14.472;2023-04-21T10:47:36;97814.91;;;16.66;57.29
9822;BME280;4950;46.042;14.472;2023-04-21T10:50:27;97812.00;;;16.74;58.26
9822;BME280;4950;46.042;14.472;2023-04-21T10:52:57;97811.53;;;16.84;58.37
9822;BME280;4950;46.042;14.472;2023-04-21T10:55:27;97807.84;;;16.92;56.72
9822;BME280;4950;46.042;14.472;2023-04-21T10:57:54;97804.72;;;17.02;56.24
9822;BME280;4950;46.042;14.472;2023-04-21T11:00:23;97801.72;;;17.16;56.31
9822;BME280;4950;46.042;14.472;2023-04-21T11:02:58;97795.13;;;17.32;56.17
9822;BME280;4950;46.042;14.472;2023-04-21T11:05:30;97799.75;;;17.49;55.14
9822;BME280;4950;46.042;14.472;2023-04-21T11:08:06;97787.63;;;17.66;56.06
9822;BME280;4950;46.042;14.472;2023-04-21T11:10:52;97778.88;;;17.91;54.18
9822;BME280;4950;46.042;14.472;2023-04-21T11:13:21;97779.34;;;18.11;53.27
9822;BME280;4950;46.042;14.472;2023-04-21T11:15:59;97776.31;;;18.26;51.61
9822;BME280;4950;46.042;14.472;2023-04-21T11:18:36;97784.00;;;18.51;52.18
9822;BME280;4950;46.042;14.472;2023-04-21T11:21:11;97781.25;;;18.70;50.99
9822;BME280;4950;46.042;14.472;2023-04-21T11:23:40;97778.22;;;18.85;48.86
9822;BME280;4950;46.042;14.472;2023-04-21T11:26:09;97779.19;;;18.72;48.08
9822;BME280;4950;46.042;14.472;2023-04-21T11:28:35;97776.91;;;18.52;48.24
9822;BME280;4950;46.042;14.472;2023-04-21T11:31:02;97773.94;;;18.48;48.88
9822;BME280;4950;46.042;14.472;2023-04-21T11:33:29;97771.53;;;18.47;49.28
9822;BME280;4950;46.042;14.472;2023-04-21T11:35:56;97776.69;;;18.53;50.45
9822;BME280;4950;46.042;14.472;2023-04-21T11:38:24;97768.91;;;18.59;51.21
9822;BME280;4950;46.042;14.472;2023-04-21T11:40:51;97771.44;;;18.53;50.64
9822;BME280;4950;46.042;14.472;2023-04-21T11:43:21;97768.47;;;18.62;50.19
9822;BME280;4950;46.042;14.472;2023-04-21T11:45:48;97774.63;;;18.55;48.96
9822;BME280;4950;46.042;14.472;2023-04-21T11:48:16;97771.88;;;18.50;49.31
9822;BME280;4950;46.042;14.472;2023-04-21T11:50:46;97767.66;;;18.49;49.77
9822;BME280;4950;46.042;14.472;2023-04-21T11:53:12;97761.00;;;18.47;49.15
9822;BME280;4950;46.042;14.472;2023-04-21T11:55:41;97754.63;;;18.43;48.03
9822;BME280;4950;46.042;14.472;2023-04-21T11:58:08;97766.28;;;18.47;49.23
9822;BME280;4950;46.042;14.472;2023-04-21T12:00:36;97758.16;;;18.48;49.05
9822;BME280;4950;46.042;14.472;2023-04-21T12:03:07;97760.78;;;18.48;49.30
9822;BME280;4950;46.042;14.472;2023-04-21T12:05:34;97750.97;;;18.44;48.69
9822;BME280;4950;46.042;14.472;2023-04-21T12:08:01;97748.91;;;18.46;49.49
9822;BME280;4950;46.042;14.472;2023-04-21T12:10:30;97748.09;;;18.45;49.25
9822;BME280;4950;46.042;14.472;2023-04-21T12:12:58;97746.38;;;18.51;47.30
9822;BME280;4950;46.042;14.472;2023-04-21T12:15:24;97752.56;;;18.45;47.91
9822;BME280;4950;46.042;14.472;2023-04-21T12:17:53;97753.13;;;18.35;49.14
9822;BME280;4950;46.042;14.472;2023-04-21T12:20:21;97755.72;;;18.23;50.00
9822;BME280;4950;46.042;14.472;2023-04-21T12:22:48;97759.50;;;18.27;48.98
9822;BME280;4950;46.042;14.472;2023-04-21T12:25:15;97784.13;;;17.72;57.09
9822;BME280;4950;46.042;14.472;2023-04-21T12:27:49;97769.63;;;16.77;59.59
9822;BME280;4950;46.042;14.472;2023-04-21T12:30:16;97773.34;;;16.45;61.29
9822;BME280;4950;46.042;14.472;2023-04-21T12:32:43;97775.50;;;15.97;62.86
9822;BME280;4950;46.042;14.472;2023-04-21T12:35:11;97781.81;;;15.83;63.76
9822;BME280;4950;46.042;14.472;2023-04-21T12:37:38;97768.41;;;15.73;63.87
9822;BME280;4950;46.042;14.472;2023-04-21T12:40:06;97763.41;;;15.58;64.62
9822;BME280;4950;46.042;14.472;2023-04-21T12:42:33;97770.50;;;15.51;65.46
9822;BME280;4950;46.042;14.472;2023-04-21T12:45:00;97766.91;;;15.38;67.12
9822;BME280;4950;46.042;14.472;2023-04-21T12:47:27;97766.56;;;15.28;68.06
9822;BME280;4950;46.042;14.472;2023-04-21T12:49:53;97768.81;;;15.18;68.75
9822;BME280;4950;46.042;14.472;2023-04-21T12:52:22;97768.41;;;15.14;68.17
9822;BME280;4950;46.042;14.472;2023-04-21T12:54:49;97774.28;;;14.96;69.07
9822;BME280;4950;46.042;14.472;2023-04-21T12:57:15;97782.75;;;14.85;68.66
9822;BME280;4950;46.042;14.472;2023-04-21T12:59:42;97778.16;;;14.74;69.31
9822;BME280;4950;46.042;14.472;2023-04-21T13:02:09;97773.09;;;14.52;70.46
9822;BME280;4950;46.042;14.472;2023-04-21T13:04:35;97772.31;;;14.45;71.93
9822;BME280;4950;46.042;14.472;2023-04-21T13:07:03;97762.88;;;14.31;72.93
9822;BME280;4950;46.042;14.472;2023-04-21T13:09:31;97760.06;;;14.26;71.90
9822;BME280;4950;46.042;14.472;2023-04-21T13:11:58;97760.28;;;14.37;67.54
9822;BME280;4950;46.042;14.472;2023-04-21T13:14:26;97750.03;;;14.36;69.67